createdAt,value
2024-01-10T00:00:18.891Z,101260.25
2024-01-10T00:02:45.314Z,101258.53
2024-01-10T00:05:11.698Z,101257.56
2024-01-10T00:07:38.155Z,101256.03
2024-01-10T00:10:05.487Z,101262.97
2024-01-10T00:12:35.995Z,101253.25
2024-01-10T00:15:05.717Z,101248.81
2024-01-10T00:17:32.600Z,101245.34
2024-01-10T00:19:59.108Z,101244.47
2024-01-10T00:22:25.557Z,101240.72
2024-01-10T00:24:51.958Z,101243.22
2024-01-10T00:27:18.316Z,101252.78
2024-01-10T00:29:44.643Z,101242.25
2024-01-10T00:32:11.058Z,101246.47
2024-01-10T00:34:37.545Z,101244.69
2024-01-10T00:37:04.023Z,101234.13
2024-01-10T00:39:30.374Z,101233.38
2024-01-10T00:41:56.782Z,101236.06
2024-01-10T00:44:23.300Z,101236.94
2024-01-10T00:46:49.698Z,101237.72
2024-01-10T00:49:16.214Z,101239.09
2024-01-10T00:51:42.601Z,101232.06
2024-01-10T00:54:09.018Z,101225.06
2024-01-10T00:56:35.359Z,101231.97
2024-01-10T00:59:02.807Z,101231.19
2024-01-10T01:01:29.265Z,101226.81
2024-01-10T01:03:55.608Z,101224.16
2024-01-10T01:06:22.062Z,101225.06
2024-01-10T01:08:48.495Z,101225.94
2024-01-10T01:11:15.690Z,101225.94
2024-01-10T01:13:42.153Z,101213.66
2024-01-10T01:16:08.796Z,101219.00
2024-01-10T01:18:35.588Z,101219.78
2024-01-10T01:21:02.295Z,101222.28
2024-01-10T01:23:36.169Z,101221.25
2024-01-10T01:26:08.178Z,101226.47
2024-01-10T01:28:34.839Z,101218.81
2024-01-10T01:31:01.325Z,101216.13
2024-01-10T01:33:27.974Z,101221.25
2024-01-10T01:35:55.343Z,101222.13
2024-01-10T01:38:21.792Z,101216.53
2024-01-10T01:40:48.392Z,101235.84
2024-01-10T01:43:25.261Z,101224.28
2024-01-10T01:45:54.937Z,101213.56
2024-01-10T01:48:22.936Z,101225.19
2024-01-10T01:50:57.678Z,101221.66
2024-01-10T01:53:24.892Z,101217.16
2024-01-10T01:55:51.850Z,101221.78
2024-01-10T01:58:19.269Z,101214.69
2024-01-10T02:00:46.688Z,101216.38
2024-01-10T02:03:13.360Z,101220.66
2024-01-10T02:05:39.974Z,101221.47
2024-01-10T02:08:07.178Z,101205.94
2024-01-10T02:10:33.786Z,101203.56
2024-01-10T02:13:00.343Z,101213.25
2024-01-10T02:15:26.961Z,101203.56
2024-01-10T02:17:53.474Z,101206.69
2024-01-10T02:20:21.798Z,101202.94
2024-01-10T02:22:48.436Z,101206.50
2024-01-10T02:25:14.935Z,101199.47
2024-01-10T02:27:42.246Z,101198.59
2024-01-10T02:30:10.005Z,101198.59
2024-01-10T02:32:37.551Z,101199.47
2024-01-10T02:35:08.322Z,101203.84
2024-01-10T02:37:35.084Z,101186.31
2024-01-10T02:40:01.623Z,101195.19
2024-01-10T02:42:29.771Z,101197.94
2024-01-10T02:44:56.057Z,101199.72
2024-01-10T02:47:22.577Z,101196.97
2024-01-10T02:49:49.227Z,101188.41
2024-01-10T02:52:15.726Z,101184.16
2024-01-10T02:54:42.300Z,101183.19
2024-01-10T02:57:08.706Z,101188.41
2024-01-10T02:59:35.033Z,101175.56
2024-01-10T03:02:01.409Z,101180.84
2024-01-10T03:04:27.777Z,101172.09
2024-01-10T03:06:54.116Z,101186.09
2024-01-10T03:09:20.595Z,101170.59
2024-01-10T03:11:46.963Z,101165.22
2024-01-10T03:14:13.425Z,101164.34
2024-01-10T03:16:40.098Z,101158.13
2024-01-10T03:19:06.751Z,101170.66
2024-01-10T03:21:33.363Z,101175.19
2024-01-10T03:24:01.550Z,101164.84
2024-01-10T03:26:29.029Z,101162.09
2024-01-10T03:28:55.537Z,101165.66
2024-01-10T03:31:21.909Z,101161.28
2024-01-10T03:33:48.470Z,101137.53
2024-01-10T03:36:17.438Z,101163.94
2024-01-10T03:38:44.761Z,101162.19
2024-01-10T03:41:15.425Z,101172.59
2024-01-10T03:43:42.130Z,101163.06
2024-01-10T03:46:09.069Z,101165.56
2024-01-10T03:48:35.639Z,101165.75
2024-01-10T03:51:02.074Z,101163.94
2024-01-10T03:53:28.419Z,101162.09
2024-01-10T03:55:54.982Z,101157.66
2024-01-10T03:58:21.571Z,101163.72
2024-01-10T04:00:47.945Z,101159.19
2024-01-10T04:03:14.363Z,101149.81
2024-01-10T04:05:42.457Z,101156.94
2024-01-10T04:08:08.944Z,101159.59
2024-01-10T04:10:35.347Z,101145.72
2024-01-10T04:13:01.702Z,101158.63
2024-01-10T04:15:28.125Z,101149.81
2024-01-10T04:17:54.706Z,101153.19
2024-01-10T04:20:21.322Z,101150.59
2024-01-10T04:22:48.221Z,101152.16
2024-01-10T04:25:14.627Z,101156.59
2024-01-10T04:27:41.007Z,101158.31
2024-01-10T04:30:08.054Z,101161.69
2024-01-10T04:32:34.592Z,101151.91
2024-01-10T04:35:01.182Z,101153.53
2024-01-10T04:37:27.657Z,101158.69
2024-01-10T04:39:54.028Z,101163.44
2024-01-10T04:42:20.848Z,101160.63
2024-01-10T04:44:47.319Z,101162.28
2024-01-10T04:47:13.861Z,101164.72
2024-01-10T04:49:40.311Z,101168.28
2024-01-10T04:52:06.870Z,101166.41
2024-01-10T04:54:33.506Z,101174.91
2024-01-10T04:56:59.887Z,101163.50
2024-01-10T04:59:26.290Z,101167.94
2024-01-10T05:01:53.032Z,101169.63
2024-01-10T05:04:19.486Z,101173.28
2024-01-10T05:06:45.864Z,101169.88
2024-01-10T05:09:12.541Z,101164.81
2024-01-10T05:11:40.407Z,101166.75
2024-01-10T05:14:08.438Z,101162.38
2024-01-10T05:16:34.848Z,101160.66
2024-01-10T05:19:04.630Z,101163.00
2024-01-10T05:21:32.407Z,101162.84
2024-01-10T05:23:58.848Z,101170.50
2024-01-10T05:26:25.292Z,101166.06
2024-01-10T05:28:51.712Z,101165.97
2024-01-10T05:31:18.136Z,101171.06
2024-01-10T05:33:47.723Z,101171.06
2024-01-10T05:36:14.156Z,101166.72
2024-01-10T05:38:43.212Z,101167.50
2024-01-10T05:41:10.151Z,101171.00
2024-01-10T05:43:36.728Z,101166.53
2024-01-10T05:46:03.403Z,101165.63
2024-01-10T05:48:29.892Z,101173.63
2024-01-10T05:50:56.367Z,101168.47
2024-01-10T05:53:25.790Z,101165.00
2024-01-10T05:55:52.279Z,101167.59
2024-01-10T05:58:18.669Z,101170.25
2024-01-10T06:00:45.032Z,101173.81
2024-01-10T06:03:11.473Z,101160.72
2024-01-10T06:05:37.930Z,101165.19
2024-01-10T06:08:05.402Z,101169.63
2024-01-10T06:10:34.425Z,101167.84
2024-01-10T06:13:02.240Z,101170.25
2024-01-10T06:15:29.339Z,101161.34
2024-01-10T06:17:55.774Z,101166.72
2024-01-10T06:20:22.318Z,101164.84
2024-01-10T06:22:48.801Z,101161.19
2024-01-10T06:25:15.367Z,101158.72
2024-01-10T06:27:41.841Z,101165.53
2024-01-10T06:30:08.986Z,101166.53
2024-01-10T06:32:36.232Z,101162.28
2024-01-10T06:35:02.921Z,101172.03
2024-01-10T06:37:29.645Z,101162.66
2024-01-10T06:39:56.056Z,101171.97
2024-01-10T06:42:22.463Z,101172.59
2024-01-10T06:44:48.953Z,101169.09
2024-01-10T06:47:15.877Z,101176.69
2024-01-10T06:49:43.639Z,101177.69
2024-01-10T06:52:10.139Z,101177.69
2024-01-10T06:54:36.538Z,101178.47
2024-01-10T06:57:03.056Z,101176.78
2024-01-10T06:59:29.431Z,101168.13
2024-01-10T07:01:58.827Z,101182.22
2024-01-10T07:04:25.740Z,101180.34
2024-01-10T07:06:52.915Z,101178.66
2024-01-10T07:09:20.829Z,101189.88
2024-01-10T07:11:48.719Z,101188.97
2024-01-10T07:14:16.265Z,101187.38
2024-01-10T07:16:43.764Z,101198.50
2024-01-10T07:19:14.346Z,101191.38
2024-01-10T07:21:42.033Z,101186.69
2024-01-10T07:24:11.487Z,101200.81
2024-01-10T07:26:38.842Z,101192.03
2024-01-10T07:29:05.493Z,101196.53
2024-01-10T07:31:32.653Z,101197.50
2024-01-10T07:33:59.115Z,101209.00
2024-01-10T07:36:28.659Z,101208.28
2024-01-10T07:38:55.004Z,101210.25
2024-01-10T07:41:21.522Z,101215.75
2024-01-10T07:43:48.026Z,101208.72
2024-01-10T07:46:14.399Z,101204.34
2024-01-10T07:48:40.837Z,101217.78
2024-01-10T07:51:07.916Z,101211.56
2024-01-10T07:53:34.913Z,101216.88
2024-01-10T07:56:01.360Z,101222.31
2024-01-10T07:58:28.335Z,101227.81
2024-01-10T08:00:55.395Z,101228.63
2024-01-10T08:03:22.012Z,101230.38
2024-01-10T08:05:48.542Z,101245.44
2024-01-10T08:08:15.052Z,101241.50
2024-01-10T08:10:41.464Z,101242.00
2024-01-10T08:13:07.918Z,101242.28
2024-01-10T08:15:35.670Z,101248.16
2024-01-10T08:18:05.262Z,101252.63
2024-01-10T08:20:31.880Z,101248.66
2024-01-10T08:22:58.630Z,101251.25
2024-01-10T08:25:25.236Z,101256.50
2024-01-10T08:27:53.217Z,101260.06
2024-01-10T08:30:19.914Z,101258.69
2024-01-10T08:32:46.407Z,101254.66
2024-01-10T08:35:12.981Z,101251.25
2024-01-10T08:37:41.979Z,101249.31
2024-01-10T08:40:13.275Z,101247.13
2024-01-10T08:42:39.841Z,101247.69
2024-01-10T08:45:06.617Z,101253.34
2024-01-10T08:47:33.759Z,101252.19
2024-01-10T08:50:00.657Z,101253.38
2024-01-10T08:52:27.112Z,101261.66
2024-01-10T08:54:53.455Z,101240.94
2024-01-10T08:57:19.839Z,101254.88
2024-01-10T08:59:46.594Z,101262.72
2024-01-10T09:02:13.079Z,101258.19
2024-01-10T09:04:40.333Z,101255.78
2024-01-10T09:07:08.322Z,101270.59
2024-01-10T09:09:34.761Z,101268.13
2024-01-10T09:12:01.198Z,101266.00
2024-01-10T09:14:27.602Z,101266.31
2024-01-10T09:16:54.050Z,101264.69
2024-01-10T09:19:20.559Z,101266.59
2024-01-10T09:21:47.004Z,101268.47
2024-01-10T09:24:22.260Z,101268.50
2024-01-10T09:26:55.441Z,101275.78
2024-01-10T09:29:22.460Z,101278.00
2024-01-10T09:31:48.988Z,101271.50
2024-01-10T09:34:15.549Z,101264.03
2024-01-10T09:36:42.370Z,101261.00
2024-01-10T09:39:14.275Z,101264.72
2024-01-10T09:41:51.737Z,101277.09
2024-01-10T09:44:19.278Z,101267.50
2024-01-10T09:46:53.897Z,101261.56
2024-01-10T09:49:22.699Z,101270.38
2024-01-10T09:51:50.514Z,101272.84
2024-01-10T09:54:17.392Z,101272.69
2024-01-10T09:56:43.922Z,101265.94
2024-01-10T09:59:12.019Z,101266.25
2024-01-10T10:01:42.153Z,101267.19
2024-01-10T10:04:12.387Z,101263.09
2024-01-10T10:06:39.118Z,101255.31
2024-01-10T10:09:08.252Z,101258.94
2024-01-10T10:11:34.649Z,101255.66
2024-01-10T10:14:17.414Z,101256.66
2024-01-10T10:16:44.493Z,101259.34
2024-01-10T10:19:13.433Z,101252.38
2024-01-10T10:21:40.704Z,101256.06
2024-01-10T10:24:08.313Z,101258.06
2024-01-10T10:26:35.882Z,101258.38
2024-01-10T10:29:03.900Z,101250.81
2024-01-10T10:31:32.188Z,101247.38
2024-01-10T10:34:00.928Z,101252.09
2024-01-10T10:36:27.931Z,101240.13
2024-01-10T10:38:54.366Z,101241.09
2024-01-10T10:41:20.848Z,101234.09
2024-01-10T10:43:49.090Z,101237.88
2024-01-10T10:46:16.089Z,101245.78
2024-01-10T10:48:43.875Z,101244.41
2024-01-10T10:51:14.720Z,101235.31
2024-01-10T10:53:46.190Z,101234.53
2024-01-10T10:56:13.760Z,101239.22
2024-01-10T10:58:41.726Z,101234.38
2024-01-10T11:01:10.095Z,101238.28
2024-01-10T11:03:38.917Z,101237.75
2024-01-10T11:06:06.769Z,101236.44
2024-01-10T11:08:53.524Z,101235.03
2024-01-10T11:11:47.521Z,101234.13
2024-01-10T11:14:45.952Z,101223.84
2024-01-10T11:17:31.081Z,101225.88
2024-01-10T11:20:14.548Z,101239.13
2024-01-10T11:23:08.837Z,101215.53
2024-01-10T11:25:37.872Z,101215.34
2024-01-10T11:28:05.739Z,101226.88
2024-01-10T11:30:36.708Z,101217.59
2024-01-10T11:33:20.098Z,101210.09
2024-01-10T11:36:11.836Z,101219.25
2024-01-10T11:38:55.044Z,101211.78
2024-01-10T11:41:27.646Z,101210.06
2024-01-10T11:44:09.486Z,101215.41
2024-01-10T11:46:39.831Z,101212.88
2024-01-10T11:49:14.687Z,101201.94
2024-01-10T11:51:47.542Z,101197.06
2024-01-10T11:54:43.638Z,101199.06
2024-01-10T11:57:13.939Z,101200.84
2024-01-10T11:59:44.252Z,101195.56
2024-01-10T12:02:11.426Z,101192.47
2024-01-10T12:04:45.301Z,101183.22
2024-01-10T12:07:14.356Z,101175.66
2024-01-10T12:09:41.036Z,101174.09
2024-01-10T12:12:07.577Z,101186.84
2024-01-10T12:14:35.256Z,101186.09
2024-01-10T12:17:02.070Z,101182.66
2024-01-10T12:19:28.790Z,101183.59
2024-01-10T12:21:55.208Z,101183.59
2024-01-10T12:24:22.217Z,101178.47
2024-01-10T12:26:49.571Z,101181.91
2024-01-10T12:29:19.348Z,101169.81
2024-01-10T12:31:46.863Z,101169.69
2024-01-10T12:34:13.544Z,101181.78
2024-01-10T12:36:39.991Z,101166.66
2024-01-10T12:39:08.054Z,101160.06
2024-01-10T12:41:35.606Z,101177.31
2024-01-10T12:44:06.028Z,101171.00
2024-01-10T12:46:32.631Z,101161.28
2024-01-10T12:49:08.547Z,101174.41
2024-01-10T12:51:38.687Z,101169.91
2024-01-10T12:54:05.224Z,101176.91
2024-01-10T12:56:31.810Z,101173.47
2024-01-10T12:58:59.278Z,101174.41
2024-01-10T13:01:26.180Z,101170.84
2024-01-10T13:03:53.740Z,101164.91
2024-01-10T13:06:23.146Z,101173.75
2024-01-10T13:08:49.962Z,101164.28
2024-01-10T13:11:16.610Z,101172.22
2024-01-10T13:13:44.281Z,101165.22
2024-01-10T13:16:14.020Z,101156.53
2024-01-10T13:18:40.937Z,101164.34
2024-01-10T13:21:07.536Z,101160.00
2024-01-10T13:23:35.009Z,101164.50
2024-01-10T13:26:01.730Z,101169.72
2024-01-10T13:28:31.717Z,101167.09
2024-01-10T13:30:58.338Z,101162.84
2024-01-10T13:33:32.354Z,101162.97
2024-01-10T13:36:00.100Z,101157.84
2024-01-10T13:38:27.281Z,101162.22
2024-01-10T13:40:53.808Z,101166.50
2024-01-10T13:43:20.119Z,101166.53
2024-01-10T13:45:46.476Z,101170.81
2024-01-10T13:48:12.884Z,101174.41
2024-01-10T13:50:40.526Z,101177.00
2024-01-10T13:53:07.026Z,101170.88
2024-01-10T13:55:33.497Z,101178.75
2024-01-10T13:57:59.915Z,101180.50
2024-01-10T14:00:26.677Z,101173.53
2024-01-10T14:02:59.681Z,101174.47
2024-01-10T14:05:29.507Z,101167.53
2024-01-10T14:07:58.091Z,101158.91
2024-01-10T14:10:25.030Z,101165.25
2024-01-10T14:12:51.547Z,101167.00
2024-01-10T14:15:18.713Z,101153.88
2024-01-10T14:17:45.233Z,101158.34
2024-01-10T14:20:13.739Z,101161.06
2024-01-10T14:22:40.941Z,101165.41
2024-01-10T14:25:07.891Z,101168.81
2024-01-10T14:27:34.336Z,101168.81
2024-01-10T14:30:00.930Z,101171.38
2024-01-10T14:32:27.750Z,101174.81
2024-01-10T14:34:54.689Z,101179.31
2024-01-10T14:37:22.162Z,101177.59
2024-01-10T14:39:48.608Z,101177.59
2024-01-10T14:42:15.178Z,101175.81
2024-01-10T14:44:41.651Z,101174.03
2024-01-10T14:47:11.409Z,101181.97
2024-01-10T14:49:39.354Z,101184.59
2024-01-10T14:52:06.491Z,101185.47
2024-01-10T14:54:32.884Z,101179.31
2024-01-10T14:56:59.243Z,101178.47
2024-01-10T14:59:36.719Z,101188.84
2024-01-10T15:02:10.206Z,101184.38
2024-01-10T15:04:42.476Z,101184.38
2024-01-10T15:07:09.249Z,101186.13
2024-01-10T15:09:38.992Z,101189.63
2024-01-10T15:12:09.494Z,101179.84
2024-01-10T15:14:37.027Z,101192.88
2024-01-10T15:17:07.075Z,101197.03
2024-01-10T15:19:33.874Z,101201.31
2024-01-10T15:22:00.567Z,101203.78
2024-01-10T15:24:28.244Z,101206.31
2024-01-10T15:26:55.129Z,101209.69
2024-01-10T15:29:21.553Z,101206.81
2024-01-10T15:31:48.178Z,101212.75
2024-01-10T15:34:14.621Z,101203.84
2024-01-10T15:36:43.261Z,101210.78
2024-01-10T15:39:09.676Z,101214.97
2024-01-10T15:41:36.170Z,101218.34
2024-01-10T15:44:02.528Z,101220.03
2024-01-10T15:46:29.071Z,101231.16
2024-01-10T15:48:55.660Z,101232.69
2024-01-10T15:51:22.111Z,101229.03
2024-01-10T15:53:51.231Z,101228.75
2024-01-10T15:56:18.980Z,101240.72
2024-01-10T15:58:45.377Z,101240.53
2024-01-10T16:01:11.788Z,101238.75
2024-01-10T16:03:38.183Z,101243.00
2024-01-10T16:06:05.191Z,101238.53
2024-01-10T16:08:31.732Z,101247.91
2024-01-10T16:10:58.216Z,101247.88
2024-01-10T16:13:24.704Z,101246.09
2024-01-10T16:15:56.004Z,101250.31
2024-01-10T16:18:25.598Z,101249.16
2024-01-10T16:20:52.924Z,101253.41
2024-01-10T16:23:19.316Z,101256.78
2024-01-10T16:25:45.757Z,101263.63
2024-01-10T16:28:12.168Z,101253.00
2024-01-10T16:30:38.521Z,101256.38
2024-01-10T16:33:05.086Z,101248.31
2024-01-10T16:35:31.707Z,101257.06
2024-01-10T16:37:58.156Z,101263.13
2024-01-10T16:40:24.555Z,101256.91
2024-01-10T16:42:50.987Z,101256.72
2024-01-10T16:45:17.803Z,101263.66
2024-01-10T16:47:44.380Z,101267.81
2024-01-10T16:50:10.850Z,101265.03
2024-01-10T16:52:39.523Z,101264.91
2024-01-10T16:55:06.408Z,101264.03
2024-01-10T16:57:32.862Z,101266.72
2024-01-10T16:59:59.216Z,101261.06
2024-01-10T17:02:25.613Z,101263.53
2024-01-10T17:04:52.089Z,101266.31
2024-01-10T17:07:18.577Z,101263.81
2024-01-10T17:09:45.680Z,101260.59
2024-01-10T17:12:12.019Z,101245.41
2024-01-10T17:14:38.372Z,101270.03
2024-01-10T17:17:07.715Z,101269.94
2024-01-10T17:19:34.067Z,101268.50
2024-01-10T17:22:00.463Z,101278.41
2024-01-10T17:24:26.826Z,101275.31
2024-01-10T17:26:53.359Z,101285.25
2024-01-10T17:29:19.756Z,101278.84
2024-01-10T17:31:46.220Z,101276.00
2024-01-10T17:34:12.645Z,101280.19
2024-01-10T17:36:39.127Z,101275.63
2024-01-10T17:39:05.903Z,101291.13
2024-01-10T17:41:32.526Z,101288.41
2024-01-10T17:43:59.931Z,101293.53
2024-01-10T17:46:26.401Z,101288.22
2024-01-10T17:48:53.298Z,101285.47
2024-01-10T17:51:22.672Z,101300.13
2024-01-10T17:53:52.635Z,101291.28
2024-01-10T17:56:19.055Z,101299.94
2024-01-10T17:58:45.488Z,101297.13
2024-01-10T18:01:12.043Z,101296.94
2024-01-10T18:03:39.001Z,101304.66
2024-01-10T18:06:06.026Z,101301.09
2024-01-10T18:08:32.608Z,101300.94
2024-01-10T18:10:59.371Z,101295.72
2024-01-10T18:13:25.807Z,101284.13
2024-01-10T18:15:52.251Z,101289.41
2024-01-10T18:18:18.677Z,101295.34
2024-01-10T18:20:45.176Z,101291.81
2024-01-10T18:23:12.385Z,101298.72
2024-01-10T18:25:40.423Z,101297.69
2024-01-10T18:28:07.081Z,101304.50
2024-01-10T18:30:33.467Z,101292.97
2024-01-10T18:33:02.298Z,101303.47
2024-01-10T18:35:28.908Z,101297.19
2024-01-10T18:37:55.502Z,101291.72
2024-01-10T18:40:21.914Z,101293.56
2024-01-10T18:42:48.249Z,101295.22
2024-01-10T18:45:14.664Z,101303.75
2024-01-10T18:47:41.158Z,101294.25
2024-01-10T18:50:08.166Z,101293.25
2024-01-10T18:52:34.594Z,101294.81
2024-01-10T18:55:00.970Z,101291.25
2024-01-10T18:57:27.320Z,101293.69
2024-01-10T18:59:53.682Z,101294.50
2024-01-10T19:02:20.148Z,101290.97
2024-01-10T19:04:46.612Z,101292.53
2024-01-10T19:07:12.951Z,101293.28
2024-01-10T19:09:39.324Z,101293.94
2024-01-10T19:12:06.103Z,101287.88
2024-01-10T19:14:36.133Z,101298.25
2024-01-10T19:17:02.843Z,101293.94
2024-01-10T19:19:29.351Z,101299.13
2024-01-10T19:21:55.854Z,101296.47
2024-01-10T19:24:23.897Z,101299.88
2024-01-10T19:26:50.243Z,101297.22
2024-01-10T19:29:16.629Z,101296.34
2024-01-10T19:31:43.061Z,101293.66
2024-01-10T19:34:10.997Z,101297.09
2024-01-10T19:36:37.609Z,101296.03
2024-01-10T19:39:05.173Z,101303.81
2024-01-10T19:41:31.879Z,101307.19
2024-01-10T19:43:58.307Z,101305.34
2024-01-10T19:46:24.649Z,101308.81
2024-01-10T19:48:51.601Z,101304.38
2024-01-10T19:51:18.132Z,101314.50
2024-01-10T19:53:49.338Z,101316.13
2024-01-10T19:56:19.268Z,101316.88
2024-01-10T19:58:46.078Z,101327.22
2024-01-10T20:01:13.194Z,101328.84
2024-01-10T20:03:39.787Z,101323.34
2024-01-10T20:06:07.143Z,101337.28
2024-01-10T20:08:33.579Z,101337.34
2024-01-10T20:11:00.133Z,101339.88
2024-01-10T20:13:26.540Z,101334.59
2024-01-10T20:15:52.871Z,101338.09
2024-01-10T20:18:19.381Z,101337.94
2024-01-10T20:20:47.249Z,101325.34
2024-01-10T20:23:13.740Z,101338.66
2024-01-10T20:25:40.726Z,101336.91
2024-01-10T20:28:09.318Z,101338.53
2024-01-10T20:30:35.755Z,101340.28
2024-01-10T20:33:02.541Z,101339.41
2024-01-10T20:35:29.317Z,101342.75
2024-01-10T20:37:57.978Z,101338.22
2024-01-10T20:40:24.421Z,101337.25
2024-01-10T20:42:50.782Z,101334.44
2024-01-10T20:45:20.051Z,101334.44
2024-01-10T20:47:47.070Z,101327.34
2024-01-10T20:50:13.673Z,101342.88
2024-01-10T20:52:40.294Z,101341.91
2024-01-10T20:55:06.876Z,101347.69
2024-01-10T20:57:33.717Z,101347.38
2024-01-10T21:00:04.401Z,101336.63
2024-01-10T21:02:31.878Z,101350.69
2024-01-10T21:04:58.493Z,101348.03
2024-01-10T21:07:25.012Z,101353.94
2024-01-10T21:09:51.594Z,101338.16
2024-01-10T21:12:18.148Z,101343.34
2024-01-10T21:14:46.379Z,101351.88
2024-01-10T21:17:14.120Z,101346.50
2024-01-10T21:19:40.808Z,101349.94
2024-01-10T21:22:07.253Z,101345.50
2024-01-10T21:24:37.860Z,101343.59
2024-01-10T21:27:05.239Z,101333.25
2024-01-10T21:29:31.837Z,101337.63
2024-01-10T21:31:58.403Z,101334.91
2024-01-10T21:34:24.889Z,101326.00
2024-01-10T21:36:51.369Z,101333.84
2024-01-10T21:39:17.721Z,101332.97
2024-01-10T21:41:44.343Z,101341.53
2024-01-10T21:44:10.919Z,101329.16
2024-01-10T21:46:37.308Z,101324.78
2024-01-10T21:49:03.772Z,101319.53
2024-01-10T21:51:30.463Z,101316.47
2024-01-10T21:53:56.886Z,101323.19
2024-01-10T21:56:23.303Z,101325.22
2024-01-10T21:58:50.020Z,101326.19
2024-01-10T22:01:16.526Z,101333.06
2024-01-10T22:03:43.802Z,101333.81
2024-01-10T22:06:10.402Z,101340.66
2024-01-10T22:08:38.752Z,101341.63
2024-01-10T22:11:05.345Z,101339.78
2024-01-10T22:13:31.775Z,101338.91
2024-01-10T22:15:58.166Z,101331.59
2024-01-10T22:18:24.951Z,101336.13
2024-01-10T22:20:51.372Z,101329.53
2024-01-10T22:23:17.775Z,101336.72
2024-01-10T22:25:44.269Z,101338.56
2024-01-10T22:28:10.773Z,101343.75
2024-01-10T22:30:37.181Z,101345.38
2024-01-10T22:33:03.963Z,101340.78
2024-01-10T22:35:30.696Z,101351.22
2024-01-10T22:37:57.243Z,101345.81
2024-01-10T22:40:23.718Z,101352.84
2024-01-10T22:42:50.116Z,101346.53
2024-01-10T22:45:16.462Z,101338.44
2024-01-10T22:47:42.941Z,101353.06
2024-01-10T22:50:11.421Z,101345.38
2024-01-10T22:52:39.028Z,101342.72
2024-01-10T22:55:06.450Z,101347.97
2024-01-10T22:57:32.831Z,101346.03
2024-01-10T22:59:59.172Z,101339.00
2024-01-10T23:02:25.560Z,101340.84
2024-01-10T23:04:52.045Z,101342.56
2024-01-10T23:07:18.386Z,101340.13
2024-01-10T23:09:44.723Z,101344.97
2024-01-10T23:12:11.097Z,101344.97
2024-01-10T23:14:37.479Z,101330.25
2024-01-10T23:17:05.385Z,101348.03
2024-01-10T23:19:32.907Z,101351.53
2024-01-10T23:21:59.282Z,101347.03
2024-01-10T23:24:25.677Z,101343.50
2024-01-10T23:26:52.674Z,101346.25
2024-01-10T23:29:19.064Z,101344.41
2024-01-10T23:31:50.449Z,101353.16
2024-01-10T23:34:16.910Z,101344.63
2024-01-10T23:36:43.278Z,101348.28
2024-01-10T23:39:09.710Z,101345.75
2024-01-10T23:41:36.391Z,101336.22
2024-01-10T23:44:02.792Z,101333.06
2024-01-10T23:46:29.237Z,101340.91
2024-01-10T23:48:55.723Z,101345.19
2024-01-10T23:51:22.687Z,101347.03
2024-01-10T23:53:49.090Z,101352.41
2024-01-10T23:56:16.870Z,101352.41
2024-01-10T23:58:43.293Z,101343.00
